Time;durP1;ratioP1;P1;durP2;ratioP2;P2;SDS_P1;SDS_P2;PMS_P1;PMS_P2;Temp;Humidity;BMP_temperature;BMP_pressure;BME280_temperature;BME280_humidity;BME280_pressure;Samples;Min_cycle;Max_cycle;Signal;HPM_P1;HPM_P2
2022/06/06 00:01:41;;;;;;;14.43;9.10;;;;;;;;;;5085512;28;20113;-66
2022/06/06 00:04:08;;;;;;;11.85;8.07;;;;;;;;;;5097805;28;20051;-66
2022/06/06 00:06:34;;;;;;;13.30;8.25;;;;;;;;;;5099049;28;20043;-66
2022/06/06 00:09:00;;;;;;;10.50;7.43;;;;;;;;;;5088433;28;20545;-66
2022/06/06 00:11:26;;;;;;;11.88;7.88;;;;;;;;;;5099873;28;20039;-66
2022/06/06 00:13:52;;;;;;;12.27;7.97;;;;;;;;;;5092895;28;20043;-66
2022/06/06 00:16:18;;;;;;;13.10;7.97;;;;;;;;;;5100058;28;20108;-66
2022/06/06 00:18:45;;;;;;;12.88;7.25;;;;;;;;;;5089098;28;20043;-66
2022/06/06 00:21:12;;;;;;;11.07;8.55;;;;;;;;;;5095180;28;20105;-66
2022/06/06 00:23:38;;;;;;;12.35;8.73;;;;;;;;;;5096387;28;20421;-66
2022/06/06 00:26:12;;;;;;;10.32;7.50;;;;;;;;;;5099565;28;20051;-66
2022/06/06 00:28:39;;;;;;;11.18;7.38;;;;;;;;;;5097827;28;20044;-66
2022/06/06 00:36:36;;;;;;;10.88;7.80;;;;;;;;;;5098864;28;20047;-66
2022/06/06 00:39:04;;;;;;;13.20;8.82;;;;;;;;;;5100317;28;20035;-66
2022/06/06 00:41:30;;;;;;;10.95;7.07;;;;;;;;;;5094866;28;20074;-66
2022/06/06 00:44:02;;;;;;;16.05;9.32;;;;;;;;;;5095075;28;20528;-66
2022/06/06 00:46:28;;;;;;;8.27;6.28;;;;;;;;;;5095935;28;20443;-66
2022/06/06 00:48:55;;;;;;;11.95;6.95;;;;;;;;;;5102642;28;20055;-66
2022/06/06 00:51:21;;;;;;;11.52;7.20;;;;;;;;;;5104095;28;20043;-66
2022/06/06 00:53:55;;;;;;;9.93;6.10;;;;;;;;;;5102553;28;20097;-66
2022/06/06 00:56:24;;;;;;;8.98;6.03;;;;;;;;;;5102575;28;20047;-66
2022/06/06 00:58:52;;;;;;;9.85;6.10;;;;;;;;;;5096006;28;20089;-66
2022/06/06 01:01:18;;;;;;;8.25;5.85;;;;;;;;;;5100462;28;20074;-66
2022/06/06 01:03:45;;;;;;;7.50;5.75;;;;;;;;;;5077685;28;20035;-66
2022/06/06 01:06:13;;;;;;;16.20;6.45;;;;;;;;;;5100569;28;20359;-66
2022/06/06 01:08:40;;;;;;;8.82;5.50;;;;;;;;;;5092160;28;20056;-66
2022/06/06 01:11:06;;;;;;;10.52;6.05;;;;;;;;;;5085206;28;20051;-66
2022/06/06 01:13:33;;;;;;;9.23;5.53;;;;;;;;;;5092481;28;20158;-66
2022/06/06 01:16:06;;;;;;;9.25;5.38;;;;;;;;;;5098500;28;20569;-66
2022/06/06 01:18:41;;;;;;;9.50;5.95;;;;;;;;;;5091818;28;20067;-66
2022/06/06 01:21:19;;;;;;;9.85;6.78;;;;;;;;;;5091574;28;20070;-66
2022/06/06 01:24:02;;;;;;;13.43;6.70;;;;;;;;;;5100725;28;20040;-66
2022/06/06 01:26:28;;;;;;;;;;;;;;;;;;5086460;28;20118;-66
2022/06/06 01:28:57;;;;;;;11.18;6.47;;;;;;;;;;5092244;28;20046;-66
2022/06/06 01:31:26;;;;;;;12.70;6.30;;;;;;;;;;5101276;28;20084;-66
2022/06/06 01:33:58;;;;;;;9.98;6.05;;;;;;;;;;5090972;28;20390;-66
2022/06/06 01:36:27;;;;;;;11.55;6.32;;;;;;;;;;5093206;28;20035;-66
2022/06/06 01:38:53;;;;;;;12.10;7.47;;;;;;;;;;5101959;28;20097;-66
2022/06/06 01:41:23;;;;;;;9.82;6.18;;;;;;;;;;5086458;28;20051;-66
2022/06/06 01:44:03;;;;;;;10.73;6.55;;;;;;;;;;5087116;28;20090;-66
2022/06/06 01:46:31;;;;;;;12.75;7.55;;;;;;;;;;5089969;28;20359;-66
2022/06/06 01:48:57;;;;;;;12.60;6.50;;;;;;;;;;5090250;28;20123;-66
2022/06/06 01:51:27;;;;;;;15.20;7.88;;;;;;;;;;5098370;28;20512;-66
2022/06/06 01:53:53;;;;;;;12.10;6.57;;;;;;;;;;5100989;28;20044;-66
2022/06/06 01:56:22;;;;;;;13.10;6.70;;;;;;;;;;5089315;28;20123;-66
2022/06/06 01:58:48;;;;;;;11.20;7.25;;;;;;;;;;5097024;28;20044;-66
2022/06/06 02:01:14;;;;;;;11.82;6.95;;;;;;;;;;5097103;28;20040;-66
2022/06/06 02:03:41;;;;;;;9.07;5.43;;;;;;;;;;5097510;28;20031;-66
2022/06/06 02:06:07;;;;;;;9.48;6.25;;;;;;;;;;5102238;28;20047;-65
2022/06/06 02:08:33;;;;;;;10.63;5.90;;;;;;;;;;5085581;28;20071;-66
2022/06/06 02:11:00;;;;;;;14.20;6.72;;;;;;;;;;5100521;28;20201;-67
2022/06/06 02:13:26;;;;;;;16.48;7.68;;;;;;;;;;5093115;28;20397;-66
2022/06/06 02:15:53;;;;;;;12.50;7.35;;;;;;;;;;5100262;28;20288;-66
2022/06/06 02:18:19;;;;;;;12.60;7.35;;;;;;;;;;5099760;28;20237;-66
2022/06/06 02:20:45;;;;;;;13.20;6.10;;;;;;;;;;5076930;28;20054;-66
2022/06/06 02:23:12;;;;;;;9.90;6.05;;;;;;;;;;5100692;28;20086;-66
2022/06/06 02:25:38;;;;;;;9.80;6.10;;;;;;;;;;5095818;28;20399;-67
2022/06/06 02:28:05;;;;;;;10.57;5.72;;;;;;;;;;5101619;28;20442;-66
2022/06/06 02:30:32;;;;;;;9.10;6.40;;;;;;;;;;5090253;28;20044;-66
2022/06/06 02:32:58;;;;;;;12.38;6.88;;;;;;;;;;5097037;28;20043;-66
2022/06/06 02:35:26;;;;;;;9.23;5.15;;;;;;;;;;5094870;28;20060;-67
2022/06/06 02:37:54;;;;;;;7.95;5.70;;;;;;;;;;5101834;28;20536;-66
2022/06/06 02:40:21;;;;;;;9.73;5.53;;;;;;;;;;5098880;28;20047;-67
2022/06/06 02:42:48;;;;;;;9.85;5.65;;;;;;;;;;5098087;28;20501;-67
2022/06/06 02:45:18;;;;;;;6.80;4.55;;;;;;;;;;5095819;28;20121;-66
2022/06/06 02:47:46;;;;;;;8.40;5.50;;;;;;;;;;5091361;28;20082;-66
2022/06/06 02:50:13;;;;;;;10.05;5.13;;;;;;;;;;5100367;28;20089;-67
2022/06/06 02:52:39;;;;;;;7.85;4.60;;;;;;;;;;5098618;28;20480;-66
2022/06/06 02:55:06;;;;;;;7.97;5.20;;;;;;;;;;5099548;28;20039;-67
2022/06/06 02:57:36;;;;;;;8.43;4.90;;;;;;;;;;5081859;28;20790;-67
2022/06/06 03:00:04;;;;;;;7.75;5.65;;;;;;;;;;5098098;28;20408;-66
2022/06/06 03:02:32;;;;;;;11.75;5.13;;;;;;;;;;5099624;28;20044;-66
2022/06/06 03:04:58;;;;;;;11.73;5.68;;;;;;;;;;5093660;28;20561;-66
2022/06/06 03:07:37;;;;;;;8.80;6.28;;;;;;;;;;5100034;28;20103;-66
2022/06/06 03:10:03;;;;;;;9.68;5.60;;;;;;;;;;5089710;28;20075;-66
2022/06/06 03:12:35;;;;;;;8.00;5.28;;;;;;;;;;5090738;28;20040;-66
2022/06/06 03:15:07;;;;;;;7.53;5.57;;;;;;;;;;5088543;28;20039;-66
2022/06/06 03:20:46;;;;;;;10.30;5.95;;;;;;;;;;5088195;28;20070;-66
2022/06/06 03:23:12;;;;;;;10.90;5.57;;;;;;;;;;5100792;28;20035;-66
2022/06/06 03:25:49;;;;;;;8.38;5.43;;;;;;;;;;5099580;28;21657;-66
2022/06/06 03:28:28;;;;;;;7.10;5.20;;;;;;;;;;5099655;28;20440;-66
2022/06/06 03:31:09;;;;;;;9.15;6.07;;;;;;;;;;5097686;28;20035;-67
2022/06/06 03:33:41;;;;;;;7.50;5.43;;;;;;;;;;5095079;28;20067;-66
2022/06/06 03:36:21;;;;;;;9.18;5.13;;;;;;;;;;5094018;28;20043;-66
2022/06/06 03:39:03;;;;;;;7.45;4.90;;;;;;;;;;5089223;28;20036;-66
2022/06/06 03:41:50;;;;;;;7.13;4.30;;;;;;;;;;5093656;28;20052;-66
2022/06/06 03:44:25;;;;;;;9.52;5.25;;;;;;;;;;5096110;28;20526;-66
2022/06/06 03:47:10;;;;;;;6.13;4.47;;;;;;;;;;5097225;28;20296;-66
2022/06/06 03:49:41;;;;;;;9.50;4.95;;;;;;;;;;5095975;28;20051;-66
2022/06/06 03:52:18;;;;;;;8.52;4.60;;;;;;;;;;5099623;28;20518;-67
2022/06/06 03:54:55;;;;;;;7.68;4.70;;;;;;;;;;5092030;28;20125;-66
2022/06/06 03:57:25;;;;;;;9.20;4.55;;;;;;;;;;5066178;28;20142;-67
2022/06/06 03:59:56;;;;;;;8.55;5.55;;;;;;;;;;5095331;28;20512;-66
2022/06/06 04:02:25;;;;;;;7.03;4.80;;;;;;;;;;5094001;28;20132;-66
2022/06/06 04:04:53;;;;;;;10.63;6.03;;;;;;;;;;5092114;28;20072;-66
2022/06/06 04:07:19;;;;;;;8.52;5.22;;;;;;;;;;5098337;28;20036;-66
2022/06/06 04:09:47;;;;;;;6.60;3.90;;;;;;;;;;5099800;28;20047;-66
2022/06/06 04:12:19;;;;;;;5.72;4.47;;;;;;;;;;5102608;28;20044;-66
2022/06/06 04:14:53;;;;;;;9.23;5.10;;;;;;;;;;5097952;28;20101;-66
2022/06/06 04:17:26;;;;;;;6.68;4.43;;;;;;;;;;5097574;28;20134;-66
2022/06/06 04:19:52;;;;;;;6.95;4.95;;;;;;;;;;5089975;28;20047;-66
2022/06/06 04:22:21;;;;;;;8.70;5.50;;;;;;;;;;5101641;28;20739;-67
2022/06/06 04:24:50;;;;;;;7.97;4.88;;;;;;;;;;5094917;28;20139;-66
2022/06/06 04:27:25;;;;;;;8.95;6.40;;;;;;;;;;5100846;28;20035;-67
2022/06/06 04:29:51;;;;;;;8.27;5.25;;;;;;;;;;5090452;28;20034;-67
2022/06/06 04:32:36;;;;;;;6.10;4.28;;;;;;;;;;5089354;28;20044;-67
2022/06/06 04:35:08;;;;;;;7.05;5.55;;;;;;;;;;5092272;28;20377;-67
2022/06/06 04:37:34;;;;;;;7.18;5.05;;;;;;;;;;5090505;28;20576;-67
2022/06/06 04:40:15;;;;;;;8.13;5.30;;;;;;;;;;5087680;28;20052;-67
2022/06/06 04:43:20;;;;;;;7.55;6.03;;;;;;;;;;5094506;28;20109;-67
2022/06/06 04:45:53;;;;;;;9.38;6.60;;;;;;;;;;5061503;28;20612;-67
2022/06/06 04:48:21;;;;;;;8.32;6.03;;;;;;;;;;5062520;28;20044;-67
2022/06/06 04:50:47;;;;;;;4.15;3.10;;;;;;;;;;5075651;28;20133;-67
2022/06/06 04:53:16;;;;;;;4.00;3.08;;;;;;;;;;5092398;28;20080;-67
2022/06/06 04:55:43;;;;;;;2.80;2.25;;;;;;;;;;5088408;28;20051;-67
2022/06/06 04:58:10;;;;;;;4.45;2.40;;;;;;;;;;5090497;28;20040;-67
2022/06/06 05:00:37;;;;;;;3.75;2.28;;;;;;;;;;5093158;28;20408;-67
2022/06/06 05:03:04;;;;;;;5.07;3.13;;;;;;;;;;5099617;28;20047;-67
2022/06/06 05:05:36;;;;;;;5.57;2.83;;;;;;;;;;5095428;28;20084;-67
2022/06/06 05:08:23;;;;;;;8.70;4.13;;;;;;;;;;5092106;28;20049;-67
2022/06/06 05:11:03;;;;;;;5.03;3.38;;;;;;;;;;5093319;28;20384;-67
2022/06/06 05:13:40;;;;;;;6.38;4.50;;;;;;;;;;5090436;28;20490;-67
2022/06/06 05:16:12;;;;;;;5.20;3.50;;;;;;;;;;5094961;28;20050;-67
2022/06/06 05:18:57;;;;;;;6.10;4.60;;;;;;;;;;5093774;28;20042;-67
2022/06/06 05:21:42;;;;;;;6.80;4.43;;;;;;;;;;5091048;28;20119;-67
2022/06/06 05:24:40;;;;;;;6.78;4.22;;;;;;;;;;5091774;28;20042;-67
2022/06/06 05:27:15;;;;;;;4.85;3.55;;;;;;;;;;5075239;28;20048;-67
2022/06/06 05:29:42;;;;;;;7.03;4.35;;;;;;;;;;5096171;28;20098;-67
2022/06/06 05:32:31;;;;;;;5.85;4.72;;;;;;;;;;5095556;28;20046;-67
2022/06/06 05:35:06;;;;;;;5.88;4.53;;;;;;;;;;5093932;28;20051;-66
2022/06/06 05:37:36;;;;;;;7.97;4.05;;;;;;;;;;5087926;28;20389;-67
2022/06/06 05:40:14;;;;;;;10.15;4.88;;;;;;;;;;5088893;28;20411;-67
2022/06/06 05:42:59;;;;;;;11.60;6.30;;;;;;;;;;5085913;28;20496;-68
2022/06/06 05:45:44;;;;;;;10.88;5.85;;;;;;;;;;5092815;28;20318;-67
2022/06/06 05:48:22;;;;;;;12.23;7.30;;;;;;;;;;5091404;28;20051;-67
2022/06/06 05:51:18;;;;;;;11.13;6.32;;;;;;;;;;5096667;28;20364;-67
2022/06/06 05:53:44;;;;;;;8.70;6.13;;;;;;;;;;5061156;28;20426;-67
2022/06/06 05:56:15;;;;;;;11.18;6.95;;;;;;;;;;5089976;28;20028;-67
2022/06/06 05:58:51;;;;;;;8.30;6.10;;;;;;;;;;5088200;28;20150;-67
2022/06/06 06:01:32;;;;;;;11.77;6.20;;;;;;;;;;5087162;28;20048;-67
2022/06/06 06:04:04;;;;;;;9.73;7.20;;;;;;;;;;5089628;28;20034;-67
2022/06/06 06:06:46;;;;;;;9.40;5.47;;;;;;;;;;5088520;28;20083;-67
2022/06/06 06:09:27;;;;;;;8.52;4.68;;;;;;;;;;5091833;28;20107;-67
2022/06/06 06:11:53;;;;;;;9.80;5.13;;;;;;;;;;5100344;28;20468;-67
2022/06/06 06:14:29;;;;;;;6.82;4.55;;;;;;;;;;5092278;28;20500;-66
2022/06/06 06:16:57;;;;;;;9.75;5.15;;;;;;;;;;5090451;28;20044;-67
2022/06/06 06:19:26;;;;;;;7.40;4.90;;;;;;;;;;5098128;28;20043;-67
2022/06/06 06:21:56;;;;;;;9.90;5.70;;;;;;;;;;5100376;28;20040;-67
2022/06/06 06:24:31;;;;;;;12.63;6.38;;;;;;;;;;5099976;28;20036;-67
2022/06/06 06:26:57;;;;;;;9.02;6.03;;;;;;;;;;5096863;28;20032;-67
2022/06/06 06:29:24;;;;;;;10.55;6.20;;;;;;;;;;5101746;28;20501;-67
2022/06/06 06:32:00;;;;;;;6.57;3.92;;;;;;;;;;5094532;28;20481;-67
2022/06/06 06:34:41;;;;;;;4.25;3.25;;;;;;;;;;5089823;28;20044;-67
2022/06/06 06:37:07;;;;;;;5.38;3.10;;;;;;;;;;5096458;28;20043;-67
2022/06/06 06:39:52;;;;;;;5.88;3.72;;;;;;;;;;5096153;28;20109;-67
2022/06/06 06:42:18;;;;;;;4.78;2.70;;;;;;;;;;5090607;28;20060;-67
2022/06/06 06:45:13;;;;;;;5.07;2.80;;;;;;;;;;5091316;28;20063;-67
2022/06/06 06:47:40;;;;;;;5.60;2.72;;;;;;;;;;5091044;28;20044;-67
2022/06/06 06:50:09;;;;;;;4.65;2.72;;;;;;;;;;5097659;28;20036;-67
2022/06/06 06:52:38;;;;;;;4.32;1.73;;;;;;;;;;5095748;28;20081;-67
2022/06/06 06:55:17;;;;;;;3.72;1.67;;;;;;;;;;5094876;28;20039;-67
2022/06/06 06:57:54;;;;;;;3.55;2.35;;;;;;;;;;5087577;28;20081;-67
2022/06/06 07:00:22;;;;;;;5.03;2.10;;;;;;;;;;5090953;28;20240;-67
2022/06/06 07:09:16;;;;;;;4.40;2.33;;;;;;;;;;5094165;28;20047;-67
2022/06/06 07:11:47;;;;;;;7.13;2.95;;;;;;;;;;5077233;28;20409;-67
2022/06/06 07:14:16;;;;;;;14.30;3.20;;;;;;;;;;5085920;28;20052;-67
2022/06/06 07:16:43;;;;;;;6.82;2.55;;;;;;;;;;5090160;28;20035;-67
2022/06/06 07:19:15;;;;;;;4.70;2.78;;;;;;;;;;5085577;28;20047;-67
2022/06/06 07:21:42;;;;;;;7.03;3.22;;;;;;;;;;5087727;28;20040;-67
2022/06/06 07:24:10;;;;;;;4.35;2.97;;;;;;;;;;5088772;28;20036;-67
2022/06/06 07:26:38;;;;;;;6.47;2.97;;;;;;;;;;5090556;28;20043;-67
2022/06/06 07:29:08;;;;;;;6.03;2.65;;;;;;;;;;5088882;28;20056;-67
2022/06/06 07:31:34;;;;;;;11.93;2.85;;;;;;;;;;5088699;28;20054;-67
2022/06/06 07:34:12;;;;;;;4.95;2.95;;;;;;;;;;5088143;28;20401;-68
2022/06/06 07:36:38;;;;;;;10.38;3.67;;;;;;;;;;5083955;28;20040;-67
2022/06/06 07:39:04;;;;;;;6.80;2.85;;;;;;;;;;5089469;28;20521;-67
2022/06/06 07:41:45;;;;;;;4.80;2.35;;;;;;;;;;5084481;28;20485;-68
2022/06/06 07:44:19;;;;;;;8.57;3.15;;;;;;;;;;5090906;28;20036;-67
2022/06/06 07:46:57;;;;;;;10.95;4.00;;;;;;;;;;5090699;28;20065;-68
2022/06/06 07:49:33;;;;;;;5.75;3.45;;;;;;;;;;5090241;28;20084;-67
2022/06/06 07:52:14;;;;;;;6.25;3.30;;;;;;;;;;5083625;28;20044;-67
2022/06/06 07:54:43;;;;;;;7.07;3.53;;;;;;;;;;5087353;28;20046;-67
2022/06/06 07:57:36;;;;;;;7.90;3.40;;;;;;;;;;5089983;28;20070;-67
2022/06/06 08:00:20;;;;;;;4.50;2.88;;;;;;;;;;5085504;28;20109;-67
2022/06/06 08:02:58;;;;;;;6.28;3.58;;;;;;;;;;5088177;28;20040;-68
2022/06/06 08:05:43;;;;;;;6.05;3.55;;;;;;;;;;5098008;28;20560;-67
2022/06/06 08:08:21;;;;;;;6.00;4.28;;;;;;;;;;5088128;28;20043;-68
2022/06/06 08:10:48;;;;;;;6.57;3.67;;;;;;;;;;5088330;28;20116;-67
2022/06/06 08:13:26;;;;;;;9.45;3.10;;;;;;;;;;5091327;28;20039;-68
2022/06/06 08:15:59;;;;;;;5.50;3.47;;;;;;;;;;5091298;28;20035;-67
2022/06/06 08:18:32;;;;;;;5.20;3.05;;;;;;;;;;5088500;28;20078;-68
2022/06/06 08:21:03;;;;;;;6.43;3.47;;;;;;;;;;5088507;28;20043;-67
2022/06/06 08:23:32;;;;;;;5.65;2.85;;;;;;;;;;5087454;28;20853;-68
2022/06/06 08:26:00;;;;;;;8.45;3.95;;;;;;;;;;5089693;28;20036;-67
2022/06/06 08:28:26;;;;;;;7.55;3.70;;;;;;;;;;5090040;28;20555;-68
2022/06/06 08:30:52;;;;;;;7.03;3.28;;;;;;;;;;5090208;28;20042;-68
2022/06/06 08:33:19;;;;;;;5.43;3.13;;;;;;;;;;5092795;28;20047;-68
2022/06/06 08:35:46;;;;;;;6.10;3.13;;;;;;;;;;5089397;28;20039;-67
2022/06/06 08:38:15;;;;;;;6.22;2.92;;;;;;;;;;5084616;28;20039;-67
2022/06/06 08:41:08;;;;;;;6.22;3.28;;;;;;;;;;5080715;28;20043;-67
2022/06/06 08:43:37;;;;;;;7.20;3.78;;;;;;;;;;5072034;28;20048;-67
2022/06/06 08:46:19;;;;;;;7.38;3.67;;;;;;;;;;5086565;28;20421;-65
2022/06/06 08:49:10;;;;;;;6.05;3.75;;;;;;;;;;5088759;28;20130;-65
2022/06/06 08:51:37;;;;;;;4.57;2.88;;;;;;;;;;5085104;28;20134;-65
2022/06/06 08:54:18;;;;;;;15.80;4.72;;;;;;;;;;5099281;28;20040;-64
2022/06/06 08:57:03;;;;;;;9.80;3.42;;;;;;;;;;5087953;28;20040;-65
2022/06/06 08:59:36;;;;;;;5.50;3.53;;;;;;;;;;5086938;28;20036;-65
2022/06/06 09:02:06;;;;;;;6.97;3.40;;;;;;;;;;5082696;28;20141;-65
2022/06/06 09:04:51;;;;;;;8.32;4.00;;;;;;;;;;5083945;28;20059;-67
2022/06/06 09:07:27;;;;;;;5.25;3.25;;;;;;;;;;5090259;28;20504;-66
2022/06/06 09:10:11;;;;;;;8.93;4.22;;;;;;;;;;5097604;28;20146;-67
2022/06/06 09:13:10;;;;;;;5.85;3.50;;;;;;;;;;5097168;28;20126;-67
2022/06/06 09:15:45;;;;;;;9.00;5.18;;;;;;;;;;5084695;27;20048;-64
2022/06/06 09:18:11;;;;;;;7.07;4.80;;;;;;;;;;5097174;28;20040;-64
2022/06/06 09:20:52;;;;;;;8.50;4.93;;;;;;;;;;5090187;28;20040;-64
2022/06/06 09:23:30;;;;;;;7.35;4.28;;;;;;;;;;5095683;28;20181;-64
2022/06/06 09:25:56;;;;;;;7.57;5.35;;;;;;;;;;5092945;28;20662;-65
2022/06/06 09:28:25;;;;;;;10.82;5.20;;;;;;;;;;5100125;28;20039;-64
2022/06/06 09:31:07;;;;;;;9.40;4.97;;;;;;;;;;5095811;28;20042;-65
2022/06/06 09:33:39;;;;;;;7.82;5.60;;;;;;;;;;5097376;28;20036;-65
2022/06/06 09:36:18;;;;;;;6.95;4.80;;;;;;;;;;5093573;28;20047;-65
2022/06/06 09:38:47;;;;;;;8.73;5.28;;;;;;;;;;5102608;28;20864;-64
2022/06/06 09:41:33;;;;;;;12.55;5.57;;;;;;;;;;5096640;28;20166;-64
2022/06/06 09:44:09;;;;;;;7.63;3.92;;;;;;;;;;5102371;28;20112;-64
2022/06/06 09:46:54;;;;;;;9.63;4.22;;;;;;;;;;5102009;28;20039;-65
2022/06/06 09:49:41;;;;;;;8.77;4.93;;;;;;;;;;5091400;28;20028;-64
2022/06/06 09:52:10;;;;;;;7.90;3.78;;;;;;;;;;5091319;28;20074;-65
2022/06/06 10:00:33;;;;;;;;;;;;;;;;;;5090247;28;20040;-64
2022/06/06 10:03:18;;;;;;;7.80;3.10;;;;;;;;;;5088067;28;19934;-64
2022/06/06 10:05:51;;;;;;;4.50;2.65;;;;;;;;;;5088688;28;20100;-64
2022/06/06 10:08:36;;;;;;;4.63;2.47;;;;;;;;;;5086989;28;20039;-64
2022/06/06 10:11:22;;;;;;;8.48;3.60;;;;;;;;;;5092879;28;20100;-65
2022/06/06 10:14:07;;;;;;;9.25;2.67;;;;;;;;;;5092614;28;20058;-65
2022/06/06 10:16:51;;;;;;;7.00;2.67;;;;;;;;;;5094899;28;20090;-67
2022/06/06 10:19:30;;;;;;;4.90;2.53;;;;;;;;;;5087657;28;20693;-67
2022/06/06 10:21:56;;;;;;;6.20;2.80;;;;;;;;;;5087696;28;20279;-66
2022/06/06 10:24:25;;;;;;;6.43;2.60;;;;;;;;;;5091861;28;20039;-65
2022/06/06 10:27:06;;;;;;;4.03;2.30;;;;;;;;;;5089809;28;20040;-65
2022/06/06 10:30:10;;;;;;;3.85;2.20;;;;;;;;;;5086481;28;20035;-64
2022/06/06 10:32:19;;;;;;;4.75;1.92;;;;;;;;;;5084235;28;20040;-64
2022/06/06 10:34:57;;;;;;;8.13;2.60;;;;;;;;;;5083969;28;20074;-64
2022/06/06 10:37:24;;;;;;;6.05;2.70;;;;;;;;;;5087324;28;20075;-64
2022/06/06 10:40:08;;;;;;;5.97;1.90;;;;;;;;;;5087607;28;20558;-64
2022/06/06 10:42:53;;;;;;;5.03;2.00;;;;;;;;;;5087682;28;20076;-64
2022/06/06 10:45:25;;;;;;;3.05;1.90;;;;;;;;;;5088149;28;20047;-67
2022/06/06 10:47:51;;;;;;;9.70;2.05;;;;;;;;;;5086106;28;20032;-67
2022/06/06 10:50:23;;;;;;;5.85;2.53;;;;;;;;;;5090290;28;20051;-67
2022/06/06 10:52:50;;;;;;;7.20;2.92;;;;;;;;;;5086732;28;20047;-67
2022/06/06 10:55:19;;;;;;;7.80;2.88;;;;;;;;;;5084219;28;20036;-67
2022/06/06 10:57:45;;;;;;;6.68;2.38;;;;;;;;;;5085446;28;20036;-67
2022/06/06 11:00:31;;;;;;;4.38;2.22;;;;;;;;;;5086969;28;20185;-67
2022/06/06 11:02:57;;;;;;;7.55;2.47;;;;;;;;;;5086513;28;20047;-67
2022/06/06 11:05:26;;;;;;;6.85;2.47;;;;;;;;;;5083535;28;20119;-67
2022/06/06 11:08:11;;;;;;;4.47;2.35;;;;;;;;;;5084040;28;20569;-67
2022/06/06 11:10:54;;;;;;;5.53;2.08;;;;;;;;;;5092150;28;20044;-67
2022/06/06 11:13:27;;;;;;;7.72;2.70;;;;;;;;;;5093326;28;20039;-67
2022/06/06 11:16:11;;;;;;;6.97;2.85;;;;;;;;;;5097480;28;20043;-68
2022/06/06 11:18:43;;;;;;;5.47;2.65;;;;;;;;;;5089740;28;20465;-68
2022/06/06 11:21:28;;;;;;;4.93;2.28;;;;;;;;;;5090027;28;20429;-65
2022/06/06 11:23:54;;;;;;;5.13;2.33;;;;;;;;;;5089614;28;20096;-65
2022/06/06 11:26:44;;;;;;;5.80;2.65;;;;;;;;;;5094002;28;20505;-65
2022/06/06 11:29:28;;;;;;;6.25;2.67;;;;;;;;;;5091535;28;20473;-65
2022/06/06 11:31:54;;;;;;;13.25;3.20;;;;;;;;;;5093761;28;20128;-65
2022/06/06 11:34:34;;;;;;;8.07;3.10;;;;;;;;;;5093252;28;20050;-65
2022/06/06 11:37:09;;;;;;;8.27;3.72;;;;;;;;;;5089814;28;20431;-65
2022/06/06 11:39:51;;;;;;;6.35;3.03;;;;;;;;;;5094014;28;20035;-67
2022/06/06 11:42:26;;;;;;;6.45;2.40;;;;;;;;;;5089478;28;20058;-67
2022/06/06 11:45:11;;;;;;;4.97;2.90;;;;;;;;;;5094535;28;20035;-67
2022/06/06 11:47:45;;;;;;;3.75;2.88;;;;;;;;;;5094171;28;20046;-67
2022/06/06 11:50:43;;;;;;;12.23;3.78;;;;;;;;;;5089506;28;20416;-67
2022/06/06 11:53:12;;;;;;;7.68;3.42;;;;;;;;;;5069817;28;20048;-67
2022/06/06 11:55:44;;;;;;;6.47;3.35;;;;;;;;;;5086045;28;20035;-67
2022/06/06 11:58:36;;;;;;;9.00;3.53;;;;;;;;;;5093346;28;20409;-67
2022/06/06 12:01:21;;;;;;;6.37;3.07;;;;;;;;;;5084266;28;20058;-67
2022/06/06 12:03:59;;;;;;;11.13;3.67;;;;;;;;;;5092179;28;20281;-65
2022/06/06 12:06:28;;;;;;;6.43;3.28;;;;;;;;;;5090159;28;20065;-64
2022/06/06 12:08:58;;;;;;;6.18;3.00;;;;;;;;;;5089877;28;20091;-65
2022/06/06 12:11:24;;;;;;;6.18;2.97;;;;;;;;;;5089331;28;20083;-65
2022/06/06 12:14:14;;;;;;;5.63;3.28;;;;;;;;;;5095515;28;20048;-65
2022/06/06 12:16:44;;;;;;;6.90;3.42;;;;;;;;;;5094759;28;20549;-65
2022/06/06 12:19:19;;;;;;;6.18;3.08;;;;;;;;;;5095641;28;20050;-64
2022/06/06 12:22:03;;;;;;;9.73;3.58;;;;;;;;;;5091181;28;20048;-65
2022/06/06 12:24:29;;;;;;;6.32;4.10;;;;;;;;;;5083381;28;20044;-65
2022/06/06 12:27:15;;;;;;;8.23;4.22;;;;;;;;;;5088756;28;20405;-65
2022/06/06 12:30:00;;;;;;;6.60;3.33;;;;;;;;;;5087858;28;20089;-65
2022/06/06 12:32:45;;;;;;;4.88;3.05;;;;;;;;;;5092074;28;20455;-65
2022/06/06 12:35:14;;;;;;;7.07;3.63;;;;;;;;;;5091091;28;20040;-65
2022/06/06 12:37:46;;;;;;;5.97;3.97;;;;;;;;;;5090529;28;20046;-66
2022/06/06 12:40:18;;;;;;;4.32;2.72;;;;;;;;;;5097135;28;20535;-65
2022/06/06 12:43:23;;;;;;;5.53;2.65;;;;;;;;;;5098361;28;20176;-66
2022/06/06 12:45:50;;;;;;;6.93;2.47;;;;;;;;;;5061288;28;20513;-65
2022/06/06 12:48:19;;;;;;;2.67;1.63;;;;;;;;;;5067438;28;20105;-65
2022/06/06 12:50:57;;;;;;;4.68;2.20;;;;;;;;;;5081769;28;20040;-65
2022/06/06 12:53:23;;;;;;;3.78;2.42;;;;;;;;;;5091033;28;20072;-65
2022/06/06 12:56:17;;;;;;;4.07;2.25;;;;;;;;;;5099776;28;20032;-65
2022/06/06 12:58:45;;;;;;;5.80;2.35;;;;;;;;;;5089580;28;20096;-65
2022/06/06 13:01:39;;;;;;;3.40;1.70;;;;;;;;;;5098817;28;20048;-65
2022/06/06 13:04:14;;;;;;;3.95;2.15;;;;;;;;;;5096049;28;20043;-65
2022/06/06 13:06:50;;;;;;;2.83;1.77;;;;;;;;;;5090042;28;20036;-65
2022/06/06 13:09:35;;;;;;;2.85;1.80;;;;;;;;;;5090033;28;20078;-65
2022/06/06 13:12:11;;;;;;;2.88;2.00;;;;;;;;;;5090073;28;20052;-65
2022/06/06 13:14:51;;;;;;;4.35;2.17;;;;;;;;;;5096388;28;20048;-65
2022/06/06 13:17:17;;;;;;;4.25;2.08;;;;;;;;;;5094829;27;20036;-65
2022/06/06 13:20:03;;;;;;;5.13;2.72;;;;;;;;;;5093744;28;20040;-65
2022/06/06 13:22:48;;;;;;;4.53;2.58;;;;;;;;;;5090874;28;20572;-65
2022/06/06 13:25:17;;;;;;;3.40;1.50;;;;;;;;;;5089188;28;20047;-65
2022/06/06 13:27:56;;;;;;;5.68;2.05;;;;;;;;;;5089792;28;20319;-65
2022/06/06 13:30:27;;;;;;;6.13;2.45;;;;;;;;;;5087347;28;20548;-65
2022/06/06 13:33:03;;;;;;;5.13;2.60;;;;;;;;;;5086999;28;20046;-65
2022/06/06 13:35:47;;;;;;;4.18;2.03;;;;;;;;;;5090105;28;20047;-65
2022/06/06 13:38:32;;;;;;;6.43;3.30;;;;;;;;;;5088890;28;20250;-65
2022/06/06 13:41:14;;;;;;;3.80;2.10;;;;;;;;;;5090399;28;20701;-65
2022/06/06 13:43:44;;;;;;;5.43;1.90;;;;;;;;;;5087639;28;20051;-65
2022/06/06 13:46:26;;;;;;;4.68;1.85;;;;;;;;;;5085638;28;20108;-65
2022/06/06 13:48:57;;;;;;;1.90;1.15;;;;;;;;;;5089670;27;20051;-65
2022/06/06 13:51:39;;;;;;;3.05;1.30;;;;;;;;;;5095010;28;20479;-65
2022/06/06 13:54:05;;;;;;;2.20;1.50;;;;;;;;;;5085168;28;20047;-65
2022/06/06 13:56:38;;;;;;;1.58;0.93;;;;;;;;;;5085971;28;20044;-65
2022/06/06 13:59:04;;;;;;;3.17;1.10;;;;;;;;;;5090201;28;20384;-65
2022/06/06 14:01:34;;;;;;;2.75;0.90;;;;;;;;;;5090479;28;20508;-67
2022/06/06 14:04:07;;;;;;;2.85;1.23;;;;;;;;;;5087576;28;20036;-67
2022/06/06 14:06:52;;;;;;;1.33;0.75;;;;;;;;;;5090068;28;20575;-65
2022/06/06 14:09:34;;;;;;;5.35;0.93;;;;;;;;;;5090181;28;20039;-65
2022/06/06 14:12:20;;;;;;;1.23;0.65;;;;;;;;;;5092322;28;20047;-65
2022/06/06 14:14:48;;;;;;;2.72;1.10;;;;;;;;;;5073397;28;20036;-65
2022/06/06 14:17:15;;;;;;;2.40;1.13;;;;;;;;;;5085503;28;20048;-65
2022/06/06 14:19:48;;;;;;;1.88;1.05;;;;;;;;;;5088279;28;20043;-65
2022/06/06 14:22:28;;;;;;;1.70;1.10;;;;;;;;;;5092748;28;20109;-65
2022/06/06 14:24:55;;;;;;;2.67;1.30;;;;;;;;;;5093254;28;20582;-65
2022/06/06 14:27:23;;;;;;;1.65;1.17;;;;;;;;;;5089944;28;20075;-65
2022/06/06 14:29:52;;;;;;;3.80;1.15;;;;;;;;;;5094648;28;20047;-65
2022/06/06 14:32:18;;;;;;;2.20;1.42;;;;;;;;;;5088650;28;20046;-66
2022/06/06 14:34:46;;;;;;;2.08;1.45;;;;;;;;;;5092411;28;20044;-65
2022/06/06 14:37:20;;;;;;;1.50;1.30;;;;;;;;;;5094463;28;20487;-65
2022/06/06 14:39:48;;;;;;;1.73;1.00;;;;;;;;;;5094187;28;20135;-65
2022/06/06 14:42:16;;;;;;;1.45;1.10;;;;;;;;;;5086526;28;20044;-65
2022/06/06 14:44:44;;;;;;;2.17;0.77;;;;;;;;;;5099152;28;20079;-65
2022/06/06 14:47:12;;;;;;;1.30;1.13;;;;;;;;;;5090856;28;20071;-65
2022/06/06 14:49:40;;;;;;;1.38;0.98;;;;;;;;;;5089662;28;20648;-65
2022/06/06 14:52:17;;;;;;;2.53;1.80;;;;;;;;;;5087238;28;20044;-65
2022/06/06 14:54:56;;;;;;;2.72;1.10;;;;;;;;;;5089959;28;20179;-67
2022/06/06 14:57:25;;;;;;;1.88;1.15;;;;;;;;;;5084909;28;20046;-65
2022/06/06 14:59:52;;;;;;;2.10;1.23;;;;;;;;;;5092316;28;20043;-65
2022/06/06 15:02:21;;;;;;;2.30;0.90;;;;;;;;;;5090932;28;20036;-65
2022/06/06 15:04:48;;;;;;;1.27;0.90;;;;;;;;;;5089243;28;20039;-65
2022/06/06 15:07:15;;;;;;;3.42;1.15;;;;;;;;;;5089736;28;20044;-67
2022/06/06 15:09:57;;;;;;;2.22;1.27;;;;;;;;;;5092272;28;20043;-64
2022/06/06 15:12:25;;;;;;;2.58;1.50;;;;;;;;;;5088664;28;20089;-64
2022/06/06 15:15:03;;;;;;;2.38;1.40;;;;;;;;;;5084978;28;20044;-65
2022/06/06 15:17:30;;;;;;;3.72;1.70;;;;;;;;;;5096172;28;20050;-65
2022/06/06 15:20:01;;;;;;;3.28;1.63;;;;;;;;;;5091852;28;20227;-65
2022/06/06 15:22:30;;;;;;;2.55;1.70;;;;;;;;;;5092020;28;20071;-65
2022/06/06 15:24:56;;;;;;;3.15;2.10;;;;;;;;;;5096054;28;20035;-65
2022/06/06 15:27:46;;;;;;;2.35;1.58;;;;;;;;;;5096577;28;20071;-65
2022/06/06 15:30:15;;;;;;;4.22;2.47;;;;;;;;;;5089469;28;20428;-65
2022/06/06 15:32:44;;;;;;;4.35;2.40;;;;;;;;;;5083304;28;20036;-65
2022/06/06 15:35:11;;;;;;;2.83;1.65;;;;;;;;;;5097265;28;20044;-66
2022/06/06 15:37:46;;;;;;;3.13;1.95;;;;;;;;;;5085868;28;20075;-66
2022/06/06 15:40:25;;;;;;;2.08;1.35;;;;;;;;;;5090271;28;20131;-66